sensor_id;sensor_type;location;lat;lon;timestamp;P1;durP1;ratioP1;P2;durP2;ratioP2
74532;SDS011;63012;51.096;-115.366;2023-05-20T00:02:12;4.40;;;0.50;;
74532;SDS011;63012;51.096;-115.366;2023-05-20T00:04:40;2.50;;;0.60;;
74532;SDS011;63012;51.096;-115.366;2023-05-20T00:07:07;3.80;;;0.60;;
74532;SDS011;63012;51.096;-115.366;2023-05-20T00:09:34;5.40;;;0.70;;
74532;SDS011;63012;51.096;-115.366;2023-05-20T00:12:03;6.40;;;1.30;;
74532;SDS011;63012;51.096;-115.366;2023-05-20T00:14:31;6.90;;;1.60;;
74532;SDS011;63012;51.096;-115.366;2023-05-20T00:16:58;9.50;;;1.80;;
74532;SDS011;63012;51.096;-115.366;2023-05-20T00:19:25;8.30;;;1.80;;
74532;SDS011;63012;51.096;-115.366;2023-05-20T00:21:52;9.70;;;2.30;;
74532;SDS011;63012;51.096;-115.366;2023-05-20T00:24:18;9.10;;;1.70;;
74532;SDS011;63012;51.096;-115.366;2023-05-20T00:26:46;7.60;;;1.60;;
74532;SDS011;63012;51.096;-115.366;2023-05-20T00:29:13;8.00;;;1.70;;
74532;SDS011;63012;51.096;-115.366;2023-05-20T00:31:40;6.40;;;1.30;;
74532;SDS011;63012;51.096;-115.366;2023-05-20T00:34:07;7.90;;;1.20;;
74532;SDS011;63012;51.096;-115.366;2023-05-20T00:36:34;6.40;;;1.30;;
74532;SDS011;63012;51.096;-115.366;2023-05-20T00:39:02;7.90;;;1.40;;
74532;SDS011;63012;51.096;-115.366;2023-05-20T00:41:28;7.70;;;1.50;;
74532;SDS011;63012;51.096;-115.366;2023-05-20T00:43:56;6.10;;;1.10;;
74532;SDS011;63012;51.096;-115.366;2023-05-20T00:46:23;5.80;;;1.50;;
74532;SDS011;63012;51.096;-115.366;2023-05-20T00:48:54;8.30;;;0.90;;
74532;SDS011;63012;51.096;-115.366;2023-05-20T00:51:21;6.90;;;1.40;;
74532;SDS011;63012;51.096;-115.366;2023-05-20T00:53:48;6.00;;;1.30;;
74532;SDS011;63012;51.096;-115.366;2023-05-20T00:56:16;6.20;;;1.30;;
74532;SDS011;63012;51.096;-115.366;2023-05-20T00:58:44;6.20;;;1.00;;
74532;SDS011;63012;51.096;-115.366;2023-05-20T01:01:11;5.90;;;1.20;;
74532;SDS011;63012;51.096;-115.366;2023-05-20T01:03:39;7.20;;;1.30;;
74532;SDS011;63012;51.096;-115.366;2023-05-20T01:06:06;6.60;;;1.40;;
74532;SDS011;63012;51.096;-115.366;2023-05-20T01:08:33;5.80;;;1.50;;
74532;SDS011;63012;51.096;-115.366;2023-05-20T01:13:41;6.50;;;1.30;;
74532;SDS011;63012;51.096;-115.366;2023-05-20T01:16:14;5.50;;;1.50;;
74532;SDS011;63012;51.096;-115.366;2023-05-20T01:18:45;5.50;;;1.20;;
74532;SDS011;63012;51.096;-115.366;2023-05-20T01:21:14;6.10;;;1.30;;
74532;SDS011;63012;51.096;-115.366;2023-05-20T01:23:44;5.90;;;1.30;;
74532;SDS011;63012;51.096;-115.366;2023-05-20T01:26:11;7.30;;;1.10;;
74532;SDS011;63012;51.096;-115.366;2023-05-20T01:28:38;5.20;;;1.50;;
74532;SDS011;63012;51.096;-115.366;2023-05-20T01:31:22;5.40;;;1.20;;
74532;SDS011;63012;51.096;-115.366;2023-05-20T01:33:55;6.00;;;1.00;;
74532;SDS011;63012;51.096;-115.366;2023-05-20T01:36:23;4.60;;;0.90;;
74532;SDS011;63012;51.096;-115.366;2023-05-20T01:38:52;5.10;;;1.00;;
74532;SDS011;63012;51.096;-115.366;2023-05-20T01:41:21;5.40;;;1.00;;
74532;SDS011;63012;51.096;-115.366;2023-05-20T01:43:50;5.20;;;1.20;;
74532;SDS011;63012;51.096;-115.366;2023-05-20T01:46:17;3.60;;;0.70;;
74532;SDS011;63012;51.096;-115.366;2023-05-20T01:48:44;4.60;;;0.90;;
74532;SDS011;63012;51.096;-115.366;2023-05-20T01:51:11;4.10;;;0.60;;
74532;SDS011;63012;51.096;-115.366;2023-05-20T01:53:38;4.40;;;0.60;;
74532;SDS011;63012;51.096;-115.366;2023-05-20T01:56:06;3.40;;;0.70;;
74532;SDS011;63012;51.096;-115.366;2023-05-20T01:58:33;4.80;;;1.00;;
74532;SDS011;63012;51.096;-115.366;2023-05-20T02:01:00;3.90;;;0.80;;
74532;SDS011;63012;51.096;-115.366;2023-05-20T02:03:28;3.40;;;0.80;;
74532;SDS011;63012;51.096;-115.366;2023-05-20T02:05:55;3.40;;;0.80;;
74532;SDS011;63012;51.096;-115.366;2023-05-20T02:08:22;3.70;;;0.50;;
74532;SDS011;63012;51.096;-115.366;2023-05-20T02:10:49;3.60;;;0.80;;
74532;SDS011;63012;51.096;-115.366;2023-05-20T02:13:16;4.30;;;0.70;;
74532;SDS011;63012;51.096;-115.366;2023-05-20T02:15:43;2.10;;;0.40;;
74532;SDS011;63012;51.096;-115.366;2023-05-20T02:18:11;3.20;;;0.70;;
74532;SDS011;63012;51.096;-115.366;2023-05-20T02:20:39;2.80;;;0.70;;
74532;SDS011;63012;51.096;-115.366;2023-05-20T02:23:06;3.10;;;0.60;;
74532;SDS011;63012;51.096;-115.366;2023-05-20T02:25:33;2.50;;;0.70;;
74532;SDS011;63012;51.096;-115.366;2023-05-20T02:28:01;2.60;;;0.50;;
74532;SDS011;63012;51.096;-115.366;2023-05-20T02:30:30;2.90;;;0.70;;
74532;SDS011;63012;51.096;-115.366;2023-05-20T02:32:57;2.90;;;0.70;;
74532;SDS011;63012;51.096;-115.366;2023-05-20T02:35:25;2.50;;;0.60;;
74532;SDS011;63012;51.096;-115.366;2023-05-20T02:37:51;3.00;;;0.50;;
74532;SDS011;63012;51.096;-115.366;2023-05-20T02:40:19;3.00;;;0.60;;
74532;SDS011;63012;51.096;-115.366;2023-05-20T02:42:46;2.80;;;0.70;;
74532;SDS011;63012;51.096;-115.366;2023-05-20T02:45:13;2.20;;;0.50;;
74532;SDS011;63012;51.096;-115.366;2023-05-20T02:47:40;6.60;;;2.00;;
74532;SDS011;63012;51.096;-115.366;2023-05-20T02:50:08;8.10;;;3.40;;
74532;SDS011;63012;51.096;-115.366;2023-05-20T02:52:35;9.60;;;3.70;;
74532;SDS011;63012;51.096;-115.366;2023-05-20T02:55:02;11.30;;;3.60;;
74532;SDS011;63012;51.096;-115.366;2023-05-20T02:57:29;11.40;;;3.60;;
74532;SDS011;63012;51.096;-115.366;2023-05-20T02:59:57;11.30;;;3.70;;
74532;SDS011;63012;51.096;-115.366;2023-05-20T03:02:24;8.90;;;3.30;;
74532;SDS011;63012;51.096;-115.366;2023-05-20T03:04:50;9.60;;;3.30;;
74532;SDS011;63012;51.096;-115.366;2023-05-20T03:07:18;9.30;;;3.60;;
74532;SDS011;63012;51.096;-115.366;2023-05-20T03:09:46;9.70;;;3.30;;
74532;SDS011;63012;51.096;-115.366;2023-05-20T03:12:13;9.90;;;3.30;;
74532;SDS011;63012;51.096;-115.366;2023-05-20T03:14:41;8.70;;;3.10;;
74532;SDS011;63012;51.096;-115.366;2023-05-20T03:17:08;8.90;;;3.20;;
74532;SDS011;63012;51.096;-115.366;2023-05-20T03:19:36;10.50;;;3.10;;
74532;SDS011;63012;51.096;-115.366;2023-05-20T03:22:03;8.60;;;2.90;;
74532;SDS011;63012;51.096;-115.366;2023-05-20T03:24:30;9.80;;;3.50;;
74532;SDS011;63012;51.096;-115.366;2023-05-20T03:26:58;9.20;;;2.90;;
74532;SDS011;63012;51.096;-115.366;2023-05-20T03:29:25;8.60;;;3.10;;
74532;SDS011;63012;51.096;-115.366;2023-05-20T03:31:52;10.40;;;3.30;;
74532;SDS011;63012;51.096;-115.366;2023-05-20T03:34:19;10.90;;;4.00;;
74532;SDS011;63012;51.096;-115.366;2023-05-20T03:36:47;9.90;;;2.90;;
74532;SDS011;63012;51.096;-115.366;2023-05-20T03:39:16;9.50;;;3.70;;
74532;SDS011;63012;51.096;-115.366;2023-05-20T03:41:43;10.50;;;3.20;;
74532;SDS011;63012;51.096;-115.366;2023-05-20T03:44:09;9.10;;;3.60;;
74532;SDS011;63012;51.096;-115.366;2023-05-20T03:46:36;8.60;;;2.80;;
74532;SDS011;63012;51.096;-115.366;2023-05-20T03:49:04;9.20;;;3.30;;
74532;SDS011;63012;51.096;-115.366;2023-05-20T03:51:31;9.40;;;3.50;;
74532;SDS011;63012;51.096;-115.366;2023-05-20T03:53:58;10.20;;;3.50;;
74532;SDS011;63012;51.096;-115.366;2023-05-20T03:56:25;10.90;;;3.70;;
74532;SDS011;63012;51.096;-115.366;2023-05-20T03:58:52;10.70;;;3.30;;
74532;SDS011;63012;51.096;-115.366;2023-05-20T04:01:19;9.90;;;3.50;;
74532;SDS011;63012;51.096;-115.366;2023-05-20T04:03:50;9.60;;;3.30;;
74532;SDS011;63012;51.096;-115.366;2023-05-20T04:06:18;11.00;;;3.40;;
74532;SDS011;63012;51.096;-115.366;2023-05-20T04:08:44;10.90;;;3.70;;
74532;SDS011;63012;51.096;-115.366;2023-05-20T04:11:11;11.30;;;3.70;;
74532;SDS011;63012;51.096;-115.366;2023-05-20T04:13:39;9.90;;;3.90;;
74532;SDS011;63012;51.096;-115.366;2023-05-20T04:16:06;10.20;;;3.80;;
74532;SDS011;63012;51.096;-115.366;2023-05-20T04:18:33;10.80;;;4.00;;
74532;SDS011;63012;51.096;-115.366;2023-05-20T04:21:04;9.80;;;3.70;;
74532;SDS011;63012;51.096;-115.366;2023-05-20T04:23:31;12.20;;;3.80;;
74532;SDS011;63012;51.096;-115.366;2023-05-20T04:25:57;10.60;;;4.30;;
74532;SDS011;63012;51.096;-115.366;2023-05-20T04:28:27;11.10;;;4.10;;
74532;SDS011;63012;51.096;-115.366;2023-05-20T04:31:03;11.20;;;4.20;;
74532;SDS011;63012;51.096;-115.366;2023-05-20T04:33:30;10.50;;;4.20;;
74532;SDS011;63012;51.096;-115.366;2023-05-20T04:35:58;10.40;;;4.00;;
74532;SDS011;63012;51.096;-115.366;2023-05-20T04:38:26;10.30;;;4.20;;
74532;SDS011;63012;51.096;-115.366;2023-05-20T04:40:58;10.10;;;3.50;;
74532;SDS011;63012;51.096;-115.366;2023-05-20T04:43:26;9.50;;;3.70;;
74532;SDS011;63012;51.096;-115.366;2023-05-20T04:45:57;8.80;;;3.30;;
74532;SDS011;63012;51.096;-115.366;2023-05-20T04:48:31;10.70;;;4.00;;
74532;SDS011;63012;51.096;-115.366;2023-05-20T04:50:58;9.40;;;3.90;;
74532;SDS011;63012;51.096;-115.366;2023-05-20T04:53:25;9.30;;;3.90;;
74532;SDS011;63012;51.096;-115.366;2023-05-20T04:55:55;9.80;;;3.60;;
74532;SDS011;63012;51.096;-115.366;2023-05-20T04:58:23;10.30;;;3.60;;
74532;SDS011;63012;51.096;-115.366;2023-05-20T05:00:51;10.00;;;3.80;;
74532;SDS011;63012;51.096;-115.366;2023-05-20T05:03:18;8.30;;;3.60;;
74532;SDS011;63012;51.096;-115.366;2023-05-20T05:05:46;11.20;;;4.00;;
74532;SDS011;63012;51.096;-115.366;2023-05-20T05:08:13;10.40;;;3.80;;
74532;SDS011;63012;51.096;-115.366;2023-05-20T05:10:42;10.10;;;4.20;;
74532;SDS011;63012;51.096;-115.366;2023-05-20T05:13:11;9.70;;;3.40;;
74532;SDS011;63012;51.096;-115.366;2023-05-20T05:15:38;10.00;;;3.20;;
74532;SDS011;63012;51.096;-115.366;2023-05-20T05:18:05;10.40;;;3.80;;
74532;SDS011;63012;51.096;-115.366;2023-05-20T05:20:32;8.60;;;3.30;;
74532;SDS011;63012;51.096;-115.366;2023-05-20T05:22:59;10.20;;;3.60;;
74532;SDS011;63012;51.096;-115.366;2023-05-20T05:25:26;9.60;;;4.10;;
74532;SDS011;63012;51.096;-115.366;2023-05-20T05:27:53;8.80;;;3.80;;
74532;SDS011;63012;51.096;-115.366;2023-05-20T05:30:20;8.50;;;3.50;;
74532;SDS011;63012;51.096;-115.366;2023-05-20T05:32:47;11.00;;;3.90;;
74532;SDS011;63012;51.096;-115.366;2023-05-20T05:35:14;9.10;;;4.00;;
74532;SDS011;63012;51.096;-115.366;2023-05-20T05:37:41;9.30;;;3.90;;
74532;SDS011;63012;51.096;-115.366;2023-05-20T05:40:09;9.90;;;3.50;;
74532;SDS011;63012;51.096;-115.366;2023-05-20T05:42:36;9.00;;;3.70;;
74532;SDS011;63012;51.096;-115.366;2023-05-20T05:45:03;9.00;;;3.30;;
74532;SDS011;63012;51.096;-115.366;2023-05-20T05:47:31;10.70;;;4.00;;
74532;SDS011;63012;51.096;-115.366;2023-05-20T05:49:58;9.20;;;3.40;;
74532;SDS011;63012;51.096;-115.366;2023-05-20T05:52:26;8.70;;;3.50;;
74532;SDS011;63012;51.096;-115.366;2023-05-20T05:54:53;11.00;;;3.60;;
74532;SDS011;63012;51.096;-115.366;2023-05-20T05:57:20;8.30;;;2.90;;
74532;SDS011;63012;51.096;-115.366;2023-05-20T05:59:46;9.80;;;3.20;;
74532;SDS011;63012;51.096;-115.366;2023-05-20T06:02:13;11.60;;;4.20;;
74532;SDS011;63012;51.096;-115.366;2023-05-20T06:04:40;9.20;;;3.50;;
74532;SDS011;63012;51.096;-115.366;2023-05-20T06:07:07;8.90;;;3.40;;
74532;SDS011;63012;51.096;-115.366;2023-05-20T06:09:34;8.60;;;3.90;;
74532;SDS011;63012;51.096;-115.366;2023-05-20T06:12:01;9.50;;;3.80;;
74532;SDS011;63012;51.096;-115.366;2023-05-20T06:14:28;9.70;;;3.90;;
74532;SDS011;63012;51.096;-115.366;2023-05-20T06:16:56;9.00;;;4.10;;
74532;SDS011;63012;51.096;-115.366;2023-05-20T06:19:24;10.10;;;3.50;;
74532;SDS011;63012;51.096;-115.366;2023-05-20T06:21:51;8.50;;;3.00;;
74532;SDS011;63012;51.096;-115.366;2023-05-20T06:24:18;10.80;;;4.00;;
74532;SDS011;63012;51.096;-115.366;2023-05-20T06:26:44;11.20;;;4.20;;
74532;SDS011;63012;51.096;-115.366;2023-05-20T06:29:12;9.60;;;3.30;;
74532;SDS011;63012;51.096;-115.366;2023-05-20T06:31:39;11.20;;;4.00;;
74532;SDS011;63012;51.096;-115.366;2023-05-20T06:34:06;8.80;;;3.50;;
74532;SDS011;63012;51.096;-115.366;2023-05-20T06:36:33;11.80;;;3.60;;
74532;SDS011;63012;51.096;-115.366;2023-05-20T06:39:00;8.60;;;3.30;;
74532;SDS011;63012;51.096;-115.366;2023-05-20T06:41:27;9.00;;;3.30;;
74532;SDS011;63012;51.096;-115.366;2023-05-20T06:43:54;9.20;;;3.30;;
74532;SDS011;63012;51.096;-115.366;2023-05-20T06:46:21;11.40;;;3.50;;
74532;SDS011;63012;51.096;-115.366;2023-05-20T06:48:48;9.00;;;3.50;;
74532;SDS011;63012;51.096;-115.366;2023-05-20T06:51:16;9.00;;;3.70;;
74532;SDS011;63012;51.096;-115.366;2023-05-20T06:53:43;9.30;;;3.30;;
74532;SDS011;63012;51.096;-115.366;2023-05-20T06:56:10;8.70;;;3.60;;
74532;SDS011;63012;51.096;-115.366;2023-05-20T06:58:37;8.80;;;3.30;;
74532;SDS011;63012;51.096;-115.366;2023-05-20T07:01:04;11.20;;;3.80;;
74532;SDS011;63012;51.096;-115.366;2023-05-20T07:03:32;10.30;;;3.50;;
74532;SDS011;63012;51.096;-115.366;2023-05-20T07:05:59;9.90;;;3.70;;
74532;SDS011;63012;51.096;-115.366;2023-05-20T07:08:26;10.50;;;3.10;;
74532;SDS011;63012;51.096;-115.366;2023-05-20T07:10:55;8.70;;;3.30;;
74532;SDS011;63012;51.096;-115.366;2023-05-20T07:13:22;10.90;;;3.30;;
74532;SDS011;63012;51.096;-115.366;2023-05-20T07:15:51;11.10;;;3.90;;
74532;SDS011;63012;51.096;-115.366;2023-05-20T07:18:18;9.90;;;3.40;;
74532;SDS011;63012;51.096;-115.366;2023-05-20T07:20:46;8.70;;;3.50;;
74532;SDS011;63012;51.096;-115.366;2023-05-20T07:23:13;11.30;;;3.00;;
74532;SDS011;63012;51.096;-115.366;2023-05-20T07:25:39;9.80;;;3.40;;
74532;SDS011;63012;51.096;-115.366;2023-05-20T07:28:06;8.70;;;3.30;;
74532;SDS011;63012;51.096;-115.366;2023-05-20T07:30:33;10.00;;;4.00;;
74532;SDS011;63012;51.096;-115.366;2023-05-20T07:33:00;10.80;;;3.20;;
74532;SDS011;63012;51.096;-115.366;2023-05-20T07:35:27;9.00;;;2.80;;
74532;SDS011;63012;51.096;-115.366;2023-05-20T07:37:54;7.90;;;3.20;;
74532;SDS011;63012;51.096;-115.366;2023-05-20T07:40:21;8.10;;;3.80;;
74532;SDS011;63012;51.096;-115.366;2023-05-20T07:42:48;10.30;;;2.90;;
74532;SDS011;63012;51.096;-115.366;2023-05-20T07:45:15;11.30;;;3.50;;
74532;SDS011;63012;51.096;-115.366;2023-05-20T07:47:42;8.40;;;3.20;;
74532;SDS011;63012;51.096;-115.366;2023-05-20T07:50:10;8.40;;;3.30;;
74532;SDS011;63012;51.096;-115.366;2023-05-20T07:52:37;10.40;;;3.50;;
74532;SDS011;63012;51.096;-115.366;2023-05-20T07:55:04;8.40;;;2.90;;
74532;SDS011;63012;51.096;-115.366;2023-05-20T07:57:32;7.90;;;2.80;;
74532;SDS011;63012;51.096;-115.366;2023-05-20T07:59:59;9.10;;;3.40;;
74532;SDS011;63012;51.096;-115.366;2023-05-20T08:02:26;11.10;;;3.50;;
74532;SDS011;63012;51.096;-115.366;2023-05-20T08:04:53;7.80;;;2.90;;
74532;SDS011;63012;51.096;-115.366;2023-05-20T08:07:20;8.30;;;3.20;;
74532;SDS011;63012;51.096;-115.366;2023-05-20T08:09:48;10.90;;;3.70;;
74532;SDS011;63012;51.096;-115.366;2023-05-20T08:12:14;9.90;;;3.00;;
74532;SDS011;63012;51.096;-115.366;2023-05-20T08:14:41;9.90;;;3.10;;
74532;SDS011;63012;51.096;-115.366;2023-05-20T08:17:09;10.60;;;3.50;;
74532;SDS011;63012;51.096;-115.366;2023-05-20T08:19:36;8.40;;;3.50;;
74532;SDS011;63012;51.096;-115.366;2023-05-20T08:22:03;9.40;;;3.60;;
74532;SDS011;63012;51.096;-115.366;2023-05-20T08:24:31;9.30;;;3.30;;
74532;SDS011;63012;51.096;-115.366;2023-05-20T08:26:58;9.70;;;3.70;;
74532;SDS011;63012;51.096;-115.366;2023-05-20T08:29:25;8.30;;;3.40;;
74532;SDS011;63012;51.096;-115.366;2023-05-20T08:31:52;9.20;;;3.00;;
74532;SDS011;63012;51.096;-115.366;2023-05-20T08:34:19;8.30;;;3.20;;
74532;SDS011;63012;51.096;-115.366;2023-05-20T08:36:47;8.80;;;2.90;;
74532;SDS011;63012;51.096;-115.366;2023-05-20T08:39:14;9.40;;;3.30;;
74532;SDS011;63012;51.096;-115.366;2023-05-20T08:41:41;7.90;;;3.30;;
74532;SDS011;63012;51.096;-115.366;2023-05-20T08:44:09;8.30;;;3.20;;
74532;SDS011;63012;51.096;-115.366;2023-05-20T08:46:37;9.40;;;3.20;;
74532;SDS011;63012;51.096;-115.366;2023-05-20T08:49:06;9.50;;;3.50;;
74532;SDS011;63012;51.096;-115.366;2023-05-20T08:51:35;10.80;;;3.40;;
74532;SDS011;63012;51.096;-115.366;2023-05-20T08:54:03;8.60;;;3.30;;
74532;SDS011;63012;51.096;-115.366;2023-05-20T08:56:32;11.30;;;3.40;;
74532;SDS011;63012;51.096;-115.366;2023-05-20T08:58:59;10.50;;;3.40;;
74532;SDS011;63012;51.096;-115.366;2023-05-20T09:01:26;8.50;;;3.10;;
74532;SDS011;63012;51.096;-115.366;2023-05-20T09:03:53;9.40;;;3.30;;
74532;SDS011;63012;51.096;-115.366;2023-05-20T09:06:21;8.80;;;3.30;;
74532;SDS011;63012;51.096;-115.366;2023-05-20T09:08:49;8.90;;;3.10;;
74532;SDS011;63012;51.096;-115.366;2023-05-20T09:11:18;9.60;;;3.20;;
74532;SDS011;63012;51.096;-115.366;2023-05-20T09:13:48;10.50;;;3.60;;
74532;SDS011;63012;51.096;-115.366;2023-05-20T09:16:16;10.40;;;4.10;;
74532;SDS011;63012;51.096;-115.366;2023-05-20T09:18:43;11.80;;;3.60;;
74532;SDS011;63012;51.096;-115.366;2023-05-20T09:21:11;8.50;;;3.10;;
74532;SDS011;63012;51.096;-115.366;2023-05-20T09:23:38;10.80;;;3.10;;
74532;SDS011;63012;51.096;-115.366;2023-05-20T09:26:05;10.00;;;3.00;;
74532;SDS011;63012;51.096;-115.366;2023-05-20T09:28:33;8.80;;;3.60;;
74532;SDS011;63012;51.096;-115.366;2023-05-20T09:31:04;8.60;;;2.90;;
74532;SDS011;63012;51.096;-115.366;2023-05-20T09:33:33;7.80;;;3.10;;
74532;SDS011;63012;51.096;-115.366;2023-05-20T09:36:03;7.70;;;3.30;;
74532;SDS011;63012;51.096;-115.366;2023-05-20T09:38:35;9.40;;;3.10;;
74532;SDS011;63012;51.096;-115.366;2023-05-20T09:41:12;8.40;;;3.10;;
74532;SDS011;63012;51.096;-115.366;2023-05-20T09:43:43;7.70;;;3.30;;
74532;SDS011;63012;51.096;-115.366;2023-05-20T09:46:11;8.80;;;3.30;;
74532;SDS011;63012;51.096;-115.366;2023-05-20T09:48:39;7.80;;;3.30;;
74532;SDS011;63012;51.096;-115.366;2023-05-20T09:51:06;8.70;;;3.60;;
74532;SDS011;63012;51.096;-115.366;2023-05-20T09:53:35;8.10;;;3.20;;
74532;SDS011;63012;51.096;-115.366;2023-05-20T09:56:02;7.90;;;3.10;;
74532;SDS011;63012;51.096;-115.366;2023-05-20T09:58:29;9.20;;;3.90;;
74532;SDS011;63012;51.096;-115.366;2023-05-20T10:00:56;8.90;;;3.60;;
74532;SDS011;63012;51.096;-115.366;2023-05-20T10:03:23;10.60;;;3.00;;
74532;SDS011;63012;51.096;-115.366;2023-05-20T10:12:32;8.90;;;3.20;;
74532;SDS011;63012;51.096;-115.366;2023-05-20T10:15:41;7.40;;;3.00;;
74532;SDS011;63012;51.096;-115.366;2023-05-20T10:21:21;9.10;;;3.40;;
74532;SDS011;63012;51.096;-115.366;2023-05-20T10:23:50;7.20;;;3.00;;
74532;SDS011;63012;51.096;-115.366;2023-05-20T10:26:18;9.10;;;3.60;;
74532;SDS011;63012;51.096;-115.366;2023-05-20T10:28:47;8.70;;;3.00;;
74532;SDS011;63012;51.096;-115.366;2023-05-20T10:33:46;9.60;;;3.50;;
74532;SDS011;63012;51.096;-115.366;2023-05-20T10:36:26;10.90;;;3.50;;
74532;SDS011;63012;51.096;-115.366;2023-05-20T10:38:59;7.80;;;3.10;;
74532;SDS011;63012;51.096;-115.366;2023-05-20T10:41:27;9.00;;;3.10;;
74532;SDS011;63012;51.096;-115.366;2023-05-20T10:44:04;7.50;;;3.00;;
74532;SDS011;63012;51.096;-115.366;2023-05-20T10:46:33;8.90;;;3.10;;
74532;SDS011;63012;51.096;-115.366;2023-05-20T10:49:03;9.50;;;3.30;;
74532;SDS011;63012;51.096;-115.366;2023-05-20T10:51:30;8.00;;;2.80;;
74532;SDS011;63012;51.096;-115.366;2023-05-20T10:54:02;7.70;;;2.90;;
74532;SDS011;63012;51.096;-115.366;2023-05-20T10:56:29;10.50;;;2.90;;
74532;SDS011;63012;51.096;-115.366;2023-05-20T10:58:56;8.30;;;3.00;;
74532;SDS011;63012;51.096;-115.366;2023-05-20T11:01:27;8.50;;;3.10;;
74532;SDS011;63012;51.096;-115.366;2023-05-20T11:03:54;9.60;;;3.20;;
74532;SDS011;63012;51.096;-115.366;2023-05-20T11:06:27;8.40;;;3.60;;
74532;SDS011;63012;51.096;-115.366;2023-05-20T11:08:54;11.20;;;3.60;;
74532;SDS011;63012;51.096;-115.366;2023-05-20T11:11:29;7.70;;;2.90;;
74532;SDS011;63012;51.096;-115.366;2023-05-20T11:13:56;9.50;;;3.50;;
74532;SDS011;63012;51.096;-115.366;2023-05-20T11:16:25;7.70;;;2.80;;
74532;SDS011;63012;51.096;-115.366;2023-05-20T11:18:52;8.40;;;2.80;;
74532;SDS011;63012;51.096;-115.366;2023-05-20T11:21:19;8.70;;;3.00;;
74532;SDS011;63012;51.096;-115.366;2023-05-20T11:23:46;8.10;;;3.30;;
74532;SDS011;63012;51.096;-115.366;2023-05-20T11:26:17;8.40;;;3.50;;
74532;SDS011;63012;51.096;-115.366;2023-05-20T11:28:45;8.40;;;3.10;;
74532;SDS011;63012;51.096;-115.366;2023-05-20T11:31:12;7.20;;;3.20;;
74532;SDS011;63012;51.096;-115.366;2023-05-20T11:33:42;7.40;;;2.90;;
74532;SDS011;63012;51.096;-115.366;2023-05-20T11:36:09;10.10;;;3.30;;
74532;SDS011;63012;51.096;-115.366;2023-05-20T11:38:39;9.30;;;3.10;;
74532;SDS011;63012;51.096;-115.366;2023-05-20T11:41:07;7.10;;;2.90;;
74532;SDS011;63012;51.096;-115.366;2023-05-20T11:43:34;8.50;;;2.90;;
74532;SDS011;63012;51.096;-115.366;2023-05-20T11:46:01;7.90;;;3.00;;
74532;SDS011;63012;51.096;-115.366;2023-05-20T11:48:31;8.70;;;3.20;;
74532;SDS011;63012;51.096;-115.366;2023-05-20T11:50:58;8.30;;;3.30;;
74532;SDS011;63012;51.096;-115.366;2023-05-20T11:53:25;8.10;;;2.90;;
74532;SDS011;63012;51.096;-115.366;2023-05-20T11:55:54;7.90;;;3.20;;
74532;SDS011;63012;51.096;-115.366;2023-05-20T11:58:28;7.40;;;2.70;;
74532;SDS011;63012;51.096;-115.366;2023-05-20T12:00:56;8.40;;;3.20;;
74532;SDS011;63012;51.096;-115.366;2023-05-20T12:03:23;8.60;;;3.50;;
74532;SDS011;63012;51.096;-115.366;2023-05-20T12:05:51;7.70;;;2.60;;
74532;SDS011;63012;51.096;-115.366;2023-05-20T12:08:19;7.80;;;3.00;;
74532;SDS011;63012;51.096;-115.366;2023-05-20T12:10:45;8.50;;;3.10;;
74532;SDS011;63012;51.096;-115.366;2023-05-20T12:13:13;8.30;;;3.40;;
74532;SDS011;63012;51.096;-115.366;2023-05-20T12:15:40;8.60;;;3.40;;
74532;SDS011;63012;51.096;-115.366;2023-05-20T12:18:07;9.40;;;3.10;;
74532;SDS011;63012;51.096;-115.366;2023-05-20T12:20:34;7.70;;;3.20;;
74532;SDS011;63012;51.096;-115.366;2023-05-20T12:23:02;8.40;;;2.90;;
74532;SDS011;63012;51.096;-115.366;2023-05-20T12:25:29;8.30;;;3.30;;
74532;SDS011;63012;51.096;-115.366;2023-05-20T12:27:57;8.80;;;3.30;;
74532;SDS011;63012;51.096;-115.366;2023-05-20T12:30:27;8.20;;;3.20;;
74532;SDS011;63012;51.096;-115.366;2023-05-20T12:32:54;7.60;;;3.00;;
74532;SDS011;63012;51.096;-115.366;2023-05-20T12:35:41;8.40;;;3.20;;
74532;SDS011;63012;51.096;-115.366;2023-05-20T12:38:09;7.60;;;2.80;;
74532;SDS011;63012;51.096;-115.366;2023-05-20T12:40:36;7.20;;;3.10;;
74532;SDS011;63012;51.096;-115.366;2023-05-20T12:43:04;8.40;;;2.80;;
74532;SDS011;63012;51.096;-115.366;2023-05-20T12:45:31;8.10;;;3.30;;
74532;SDS011;63012;51.096;-115.366;2023-05-20T12:47:58;7.80;;;2.90;;
74532;SDS011;63012;51.096;-115.366;2023-05-20T12:50:26;8.20;;;3.70;;
74532;SDS011;63012;51.096;-115.366;2023-05-20T12:52:53;8.60;;;3.70;;
74532;SDS011;63012;51.096;-115.366;2023-05-20T12:55:20;8.60;;;3.40;;
74532;SDS011;63012;51.096;-115.366;2023-05-20T12:57:47;8.30;;;3.30;;
74532;SDS011;63012;51.096;-115.366;2023-05-20T13:00:15;7.90;;;3.30;;
74532;SDS011;63012;51.096;-115.366;2023-05-20T13:02:43;8.90;;;3.30;;
74532;SDS011;63012;51.096;-115.366;2023-05-20T13:05:10;7.90;;;3.00;;
74532;SDS011;63012;51.096;-115.366;2023-05-20T13:07:37;8.70;;;3.00;;
74532;SDS011;63012;51.096;-115.366;2023-05-20T13:10:06;9.20;;;3.20;;
74532;SDS011;63012;51.096;-115.366;2023-05-20T13:12:35;10.00;;;3.10;;
74532;SDS011;63012;51.096;-115.366;2023-05-20T13:15:03;9.80;;;2.90;;
74532;SDS011;63012;51.096;-115.366;2023-05-20T13:17:30;9.30;;;2.70;;
74532;SDS011;63012;51.096;-115.366;2023-05-20T13:19:58;10.80;;;3.70;;
74532;SDS011;63012;51.096;-115.366;2023-05-20T13:22:25;11.80;;;3.50;;
74532;SDS011;63012;51.096;-115.366;2023-05-20T13:24:52;8.80;;;3.50;;
74532;SDS011;63012;51.096;-115.366;2023-05-20T13:27:19;9.10;;;3.80;;
74532;SDS011;63012;51.096;-115.366;2023-05-20T13:29:46;8.40;;;3.50;;
74532;SDS011;63012;51.096;-115.366;2023-05-20T13:32:13;10.50;;;3.10;;
74532;SDS011;63012;51.096;-115.366;2023-05-20T13:34:40;8.40;;;3.30;;
74532;SDS011;63012;51.096;-115.366;2023-05-20T13:37:07;8.20;;;3.20;;
74532;SDS011;63012;51.096;-115.366;2023-05-20T13:39:35;7.40;;;3.00;;
74532;SDS011;63012;51.096;-115.366;2023-05-20T13:42:02;7.30;;;2.70;;
74532;SDS011;63012;51.096;-115.366;2023-05-20T13:44:29;8.10;;;3.40;;
74532;SDS011;63012;51.096;-115.366;2023-05-20T13:46:57;7.60;;;2.80;;
74532;SDS011;63012;51.096;-115.366;2023-05-20T13:49:23;8.50;;;3.40;;
74532;SDS011;63012;51.096;-115.366;2023-05-20T13:51:51;9.10;;;3.60;;
74532;SDS011;63012;51.096;-115.366;2023-05-20T13:54:19;8.60;;;3.60;;
74532;SDS011;63012;51.096;-115.366;2023-05-20T13:56:46;7.90;;;3.10;;
74532;SDS011;63012;51.096;-115.366;2023-05-20T13:59:14;8.50;;;3.40;;
74532;SDS011;63012;51.096;-115.366;2023-05-20T14:01:41;7.90;;;3.30;;
74532;SDS011;63012;51.096;-115.366;2023-05-20T14:04:11;8.50;;;3.50;;
74532;SDS011;63012;51.096;-115.366;2023-05-20T14:06:38;8.10;;;3.10;;
74532;SDS011;63012;51.096;-115.366;2023-05-20T14:09:06;8.10;;;3.40;;
74532;SDS011;63012;51.096;-115.366;2023-05-20T14:11:36;8.80;;;3.10;;
74532;SDS011;63012;51.096;-115.366;2023-05-20T14:14:03;7.90;;;3.10;;
74532;SDS011;63012;51.096;-115.366;2023-05-20T14:16:31;8.90;;;3.40;;
74532;SDS011;63012;51.096;-115.366;2023-05-20T14:18:58;7.90;;;3.40;;
74532;SDS011;63012;51.096;-115.366;2023-05-20T14:21:25;8.90;;;3.60;;
74532;SDS011;63012;51.096;-115.366;2023-05-20T14:23:52;8.30;;;3.70;;
74532;SDS011;63012;51.096;-115.366;2023-05-20T14:26:19;8.30;;;3.10;;